sensor_id;sensor_type;location;lat;lon;timestamp;P1;durP1;ratioP1;P2;durP2;ratioP2
21727;SDS011;11026;50.560;17.852;2024-02-14T00:00:54;30.65;;;21.23;;
21727;SDS011;11026;50.560;17.852;2024-02-14T00:03:22;35.40;;;21.58;;
21727;SDS011;11026;50.560;17.852;2024-02-14T00:05:51;31.50;;;20.95;;
21727;SDS011;11026;50.560;17.852;2024-02-14T00:08:19;36.75;;;24.92;;
21727;SDS011;11026;50.560;17.852;2024-02-14T00:10:48;38.45;;;24.13;;
21727;SDS011;11026;50.560;17.852;2024-02-14T00:13:15;41.92;;;26.35;;
21727;SDS011;11026;50.560;17.852;2024-02-14T00:15:45;40.78;;;25.20;;
21727;SDS011;11026;50.560;17.852;2024-02-14T00:20:43;41.75;;;25.85;;
21727;SDS011;11026;50.560;17.852;2024-02-14T00:23:10;49.33;;;37.38;;
21727;SDS011;11026;50.560;17.852;2024-02-14T00:25:38;43.85;;;29.92;;
21727;SDS011;11026;50.560;17.852;2024-02-14T00:28:05;48.13;;;31.70;;
21727;SDS011;11026;50.560;17.852;2024-02-14T00:30:32;50.45;;;32.90;;
21727;SDS011;11026;50.560;17.852;2024-02-14T00:33:01;53.10;;;35.45;;
21727;SDS011;11026;50.560;17.852;2024-02-14T00:35:29;54.25;;;34.85;;
21727;SDS011;11026;50.560;17.852;2024-02-14T00:37:56;48.65;;;28.58;;
21727;SDS011;11026;50.560;17.852;2024-02-14T00:40:24;46.90;;;29.73;;
21727;SDS011;11026;50.560;17.852;2024-02-14T00:42:51;43.28;;;27.23;;
21727;SDS011;11026;50.560;17.852;2024-02-14T00:45:18;42.40;;;27.23;;
21727;SDS011;11026;50.560;17.852;2024-02-14T00:47:45;43.42;;;28.48;;
21727;SDS011;11026;50.560;17.852;2024-02-14T00:52:45;44.03;;;27.97;;
21727;SDS011;11026;50.560;17.852;2024-02-14T00:55:13;41.10;;;27.05;;
21727;SDS011;11026;50.560;17.852;2024-02-14T00:57:40;37.47;;;24.85;;
21727;SDS011;11026;50.560;17.852;2024-02-14T01:00:07;45.20;;;27.63;;
21727;SDS011;11026;50.560;17.852;2024-02-14T01:02:35;41.83;;;27.92;;
21727;SDS011;11026;50.560;17.852;2024-02-14T01:05:04;38.90;;;26.55;;
21727;SDS011;11026;50.560;17.852;2024-02-14T01:07:32;36.63;;;24.92;;
21727;SDS011;11026;50.560;17.852;2024-02-14T01:09:59;40.10;;;25.27;;
21727;SDS011;11026;50.560;17.852;2024-02-14T01:12:27;45.10;;;27.20;;
21727;SDS011;11026;50.560;17.852;2024-02-14T01:14:56;50.13;;;31.27;;
21727;SDS011;11026;50.560;17.852;2024-02-14T01:17:23;48.05;;;29.35;;
21727;SDS011;11026;50.560;17.852;2024-02-14T01:19:53;42.28;;;25.50;;
21727;SDS011;11026;50.560;17.852;2024-02-14T01:22:21;44.25;;;28.10;;
21727;SDS011;11026;50.560;17.852;2024-02-14T01:24:48;45.30;;;28.70;;
21727;SDS011;11026;50.560;17.852;2024-02-14T01:27:15;52.63;;;33.45;;
21727;SDS011;11026;50.560;17.852;2024-02-14T01:29:45;56.65;;;35.88;;
21727;SDS011;11026;50.560;17.852;2024-02-14T01:32:12;57.33;;;35.80;;
21727;SDS011;11026;50.560;17.852;2024-02-14T01:34:39;55.20;;;35.13;;
21727;SDS011;11026;50.560;17.852;2024-02-14T01:37:07;61.17;;;35.55;;
21727;SDS011;11026;50.560;17.852;2024-02-14T01:39:36;58.50;;;36.08;;
21727;SDS011;11026;50.560;17.852;2024-02-14T01:42:03;60.67;;;38.30;;
21727;SDS011;11026;50.560;17.852;2024-02-14T01:44:33;57.40;;;35.90;;
21727;SDS011;11026;50.560;17.852;2024-02-14T01:47:01;58.65;;;36.53;;
21727;SDS011;11026;50.560;17.852;2024-02-14T01:49:29;53.05;;;35.35;;
21727;SDS011;11026;50.560;17.852;2024-02-14T01:51:59;46.97;;;29.98;;
21727;SDS011;11026;50.560;17.852;2024-02-14T01:54:30;50.45;;;29.20;;
21727;SDS011;11026;50.560;17.852;2024-02-14T01:56:59;44.40;;;29.42;;
21727;SDS011;11026;50.560;17.852;2024-02-14T01:59:27;52.88;;;31.30;;
21727;SDS011;11026;50.560;17.852;2024-02-14T02:01:57;50.65;;;30.55;;
21727;SDS011;11026;50.560;17.852;2024-02-14T02:04:24;54.78;;;32.42;;
21727;SDS011;11026;50.560;17.852;2024-02-14T02:06:51;55.33;;;34.90;;
21727;SDS011;11026;50.560;17.852;2024-02-14T02:11:53;53.92;;;33.80;;
21727;SDS011;11026;50.560;17.852;2024-02-14T02:16:51;63.75;;;37.58;;
21727;SDS011;11026;50.560;17.852;2024-02-14T02:19:18;64.10;;;39.28;;
21727;SDS011;11026;50.560;17.852;2024-02-14T02:21:46;75.75;;;47.63;;
21727;SDS011;11026;50.560;17.852;2024-02-14T02:24:13;69.53;;;42.63;;
21727;SDS011;11026;50.560;17.852;2024-02-14T02:26:41;74.57;;;46.88;;
21727;SDS011;11026;50.560;17.852;2024-02-14T02:29:08;75.80;;;48.25;;
21727;SDS011;11026;50.560;17.852;2024-02-14T02:31:36;71.25;;;44.72;;
21727;SDS011;11026;50.560;17.852;2024-02-14T02:34:05;71.85;;;44.47;;
21727;SDS011;11026;50.560;17.852;2024-02-14T02:36:35;72.38;;;44.70;;
21727;SDS011;11026;50.560;17.852;2024-02-14T02:39:02;64.63;;;40.42;;
21727;SDS011;11026;50.560;17.852;2024-02-14T02:41:32;66.90;;;41.03;;
21727;SDS011;11026;50.560;17.852;2024-02-14T02:44:00;65.82;;;42.55;;
21727;SDS011;11026;50.560;17.852;2024-02-14T02:46:28;64.75;;;40.33;;
21727;SDS011;11026;50.560;17.852;2024-02-14T02:48:57;65.18;;;39.33;;
21727;SDS011;11026;50.560;17.852;2024-02-14T02:51:26;69.47;;;39.95;;
21727;SDS011;11026;50.560;17.852;2024-02-14T02:53:54;67.30;;;41.65;;
21727;SDS011;11026;50.560;17.852;2024-02-14T02:56:24;64.63;;;42.72;;
21727;SDS011;11026;50.560;17.852;2024-02-14T02:58:54;58.67;;;38.60;;
21727;SDS011;11026;50.560;17.852;2024-02-14T03:01:22;64.65;;;39.60;;
21727;SDS011;11026;50.560;17.852;2024-02-14T03:03:53;62.95;;;39.33;;
21727;SDS011;11026;50.560;17.852;2024-02-14T03:08:51;66.63;;;42.10;;
21727;SDS011;11026;50.560;17.852;2024-02-14T03:11:21;63.25;;;39.95;;
21727;SDS011;11026;50.560;17.852;2024-02-14T03:13:49;62.08;;;38.53;;
21727;SDS011;11026;50.560;17.852;2024-02-14T03:16:16;59.65;;;36.35;;
21727;SDS011;11026;50.560;17.852;2024-02-14T03:18:44;62.00;;;37.42;;
21727;SDS011;11026;50.560;17.852;2024-02-14T03:21:12;57.40;;;36.63;;
21727;SDS011;11026;50.560;17.852;2024-02-14T03:23:39;60.55;;;37.38;;
21727;SDS011;11026;50.560;17.852;2024-02-14T03:26:06;60.92;;;38.38;;
21727;SDS011;11026;50.560;17.852;2024-02-14T03:28:35;66.68;;;41.00;;
21727;SDS011;11026;50.560;17.852;2024-02-14T03:31:03;63.75;;;39.25;;
21727;SDS011;11026;50.560;17.852;2024-02-14T03:33:31;58.47;;;35.90;;
21727;SDS011;11026;50.560;17.852;2024-02-14T03:35:59;57.42;;;37.33;;
21727;SDS011;11026;50.560;17.852;2024-02-14T03:38:27;56.92;;;37.45;;
21727;SDS011;11026;50.560;17.852;2024-02-14T03:40:54;61.55;;;37.83;;
21727;SDS011;11026;50.560;17.852;2024-02-14T03:43:22;58.20;;;36.35;;
21727;SDS011;11026;50.560;17.852;2024-02-14T03:45:51;59.88;;;37.05;;
21727;SDS011;11026;50.560;17.852;2024-02-14T03:48:19;53.83;;;34.75;;
21727;SDS011;11026;50.560;17.852;2024-02-14T03:50:47;62.22;;;36.05;;
21727;SDS011;11026;50.560;17.852;2024-02-14T03:53:17;56.72;;;34.85;;
21727;SDS011;11026;50.560;17.852;2024-02-14T03:55:45;55.80;;;34.47;;
21727;SDS011;11026;50.560;17.852;2024-02-14T03:58:13;54.28;;;33.83;;
21727;SDS011;11026;50.560;17.852;2024-02-14T04:00:43;60.15;;;36.45;;
21727;SDS011;11026;50.560;17.852;2024-02-14T04:03:13;69.85;;;41.83;;
21727;SDS011;11026;50.560;17.852;2024-02-14T04:05:41;65.78;;;41.17;;
21727;SDS011;11026;50.560;17.852;2024-02-14T04:08:09;70.53;;;41.83;;
21727;SDS011;11026;50.560;17.852;2024-02-14T04:10:39;59.40;;;36.65;;
21727;SDS011;11026;50.560;17.852;2024-02-14T04:13:06;63.42;;;37.90;;
21727;SDS011;11026;50.560;17.852;2024-02-14T04:15:34;55.47;;;34.28;;
21727;SDS011;11026;50.560;17.852;2024-02-14T04:18:00;64.47;;;35.63;;
21727;SDS011;11026;50.560;17.852;2024-02-14T04:20:35;59.10;;;37.88;;
21727;SDS011;11026;50.560;17.852;2024-02-14T04:23:03;69.20;;;41.03;;
21727;SDS011;11026;50.560;17.852;2024-02-14T04:25:33;68.22;;;41.72;;
21727;SDS011;11026;50.560;17.852;2024-02-14T04:28:02;73.80;;;47.17;;
21727;SDS011;11026;50.560;17.852;2024-02-14T04:30:30;63.78;;;40.03;;
21727;SDS011;11026;50.560;17.852;2024-02-14T04:35:28;54.78;;;34.53;;
21727;SDS011;11026;50.560;17.852;2024-02-14T04:37:55;51.40;;;33.35;;
21727;SDS011;11026;50.560;17.852;2024-02-14T04:40:23;52.13;;;32.67;;
21727;SDS011;11026;50.560;17.852;2024-02-14T04:42:50;49.63;;;30.90;;
21727;SDS011;11026;50.560;17.852;2024-02-14T04:45:18;46.65;;;29.50;;
21727;SDS011;11026;50.560;17.852;2024-02-14T04:47:45;53.25;;;31.88;;
21727;SDS011;11026;50.560;17.852;2024-02-14T04:50:13;53.47;;;32.35;;
21727;SDS011;11026;50.560;17.852;2024-02-14T04:52:40;48.65;;;30.77;;
21727;SDS011;11026;50.560;17.852;2024-02-14T04:57:39;49.95;;;30.48;;
21727;SDS011;11026;50.560;17.852;2024-02-14T05:00:06;50.13;;;31.02;;
21727;SDS011;11026;50.560;17.852;2024-02-14T05:02:35;47.88;;;31.50;;
21727;SDS011;11026;50.560;17.852;2024-02-14T05:05:04;51.03;;;31.92;;
21727;SDS011;11026;50.560;17.852;2024-02-14T05:07:34;55.10;;;31.17;;
21727;SDS011;11026;50.560;17.852;2024-02-14T05:12:34;48.30;;;30.55;;
21727;SDS011;11026;50.560;17.852;2024-02-14T05:15:03;48.80;;;30.65;;
21727;SDS011;11026;50.560;17.852;2024-02-14T05:17:31;50.15;;;29.92;;
21727;SDS011;11026;50.560;17.852;2024-02-14T05:19:58;51.60;;;31.75;;
21727;SDS011;11026;50.560;17.852;2024-02-14T05:22:26;49.80;;;30.92;;
21727;SDS011;11026;50.560;17.852;2024-02-14T05:24:54;47.20;;;29.42;;
21727;SDS011;11026;50.560;17.852;2024-02-14T05:27:22;49.85;;;31.10;;
21727;SDS011;11026;50.560;17.852;2024-02-14T05:29:48;48.17;;;30.23;;
21727;SDS011;11026;50.560;17.852;2024-02-14T05:32:16;46.00;;;29.48;;
21727;SDS011;11026;50.560;17.852;2024-02-14T05:34:43;58.35;;;35.80;;
21727;SDS011;11026;50.560;17.852;2024-02-14T05:37:11;53.90;;;33.38;;
21727;SDS011;11026;50.560;17.852;2024-02-14T05:39:39;94.97;;;45.45;;
21727;SDS011;11026;50.560;17.852;2024-02-14T05:42:06;139.50;;;65.07;;
21727;SDS011;11026;50.560;17.852;2024-02-14T05:44:34;150.55;;;75.45;;
21727;SDS011;11026;50.560;17.852;2024-02-14T05:47:01;142.18;;;77.15;;
21727;SDS011;11026;50.560;17.852;2024-02-14T05:49:30;140.07;;;73.05;;
21727;SDS011;11026;50.560;17.852;2024-02-14T05:51:57;141.63;;;66.45;;
21727;SDS011;11026;50.560;17.852;2024-02-14T05:54:25;123.25;;;57.60;;
21727;SDS011;11026;50.560;17.852;2024-02-14T05:56:52;103.90;;;53.95;;
21727;SDS011;11026;50.560;17.852;2024-02-14T05:59:19;96.03;;;50.47;;
21727;SDS011;11026;50.560;17.852;2024-02-14T06:01:47;84.68;;;47.45;;
21727;SDS011;11026;50.560;17.852;2024-02-14T06:06:45;87.57;;;48.97;;
21727;SDS011;11026;50.560;17.852;2024-02-14T06:09:12;79.55;;;46.30;;
21727;SDS011;11026;50.560;17.852;2024-02-14T06:11:41;74.25;;;41.40;;
21727;SDS011;11026;50.560;17.852;2024-02-14T06:16:40;75.75;;;41.38;;
21727;SDS011;11026;50.560;17.852;2024-02-14T06:19:07;59.53;;;38.83;;
21727;SDS011;11026;50.560;17.852;2024-02-14T06:21:36;65.82;;;39.28;;
21727;SDS011;11026;50.560;17.852;2024-02-14T06:24:03;88.72;;;46.03;;
21727;SDS011;11026;50.560;17.852;2024-02-14T06:26:31;77.10;;;44.13;;
21727;SDS011;11026;50.560;17.852;2024-02-14T06:29:00;107.93;;;50.10;;
21727;SDS011;11026;50.560;17.852;2024-02-14T06:31:27;98.10;;;47.33;;
21727;SDS011;11026;50.560;17.852;2024-02-14T06:33:56;104.60;;;54.70;;
21727;SDS011;11026;50.560;17.852;2024-02-14T06:36:23;108.63;;;51.65;;
21727;SDS011;11026;50.560;17.852;2024-02-14T06:38:51;101.10;;;50.13;;
21727;SDS011;11026;50.560;17.852;2024-02-14T06:41:18;128.00;;;55.58;;
21727;SDS011;11026;50.560;17.852;2024-02-14T06:43:48;88.90;;;49.15;;
21727;SDS011;11026;50.560;17.852;2024-02-14T06:46:16;103.68;;;53.00;;
21727;SDS011;11026;50.560;17.852;2024-02-14T06:48:43;112.57;;;53.58;;
21727;SDS011;11026;50.560;17.852;2024-02-14T06:51:11;107.97;;;54.40;;
21727;SDS011;11026;50.560;17.852;2024-02-14T06:53:40;111.88;;;59.63;;
21727;SDS011;11026;50.560;17.852;2024-02-14T06:56:07;110.03;;;58.45;;
21727;SDS011;11026;50.560;17.852;2024-02-14T06:58:34;93.38;;;52.75;;
21727;SDS011;11026;50.560;17.852;2024-02-14T07:01:01;94.43;;;53.35;;
21727;SDS011;11026;50.560;17.852;2024-02-14T07:03:29;92.68;;;53.40;;
21727;SDS011;11026;50.560;17.852;2024-02-14T07:10:59;91.55;;;54.22;;
21727;SDS011;11026;50.560;17.852;2024-02-14T07:13:25;96.07;;;55.22;;
21727;SDS011;11026;50.560;17.852;2024-02-14T07:15:55;95.90;;;57.88;;
21727;SDS011;11026;50.560;17.852;2024-02-14T07:18:24;114.55;;;69.28;;
21727;SDS011;11026;50.560;17.852;2024-02-14T07:20:51;102.30;;;63.00;;
21727;SDS011;11026;50.560;17.852;2024-02-14T07:23:19;97.75;;;58.67;;
21727;SDS011;11026;50.560;17.852;2024-02-14T07:25:48;85.10;;;51.85;;
21727;SDS011;11026;50.560;17.852;2024-02-14T07:28:15;79.00;;;49.50;;
21727;SDS011;11026;50.560;17.852;2024-02-14T07:30:43;72.97;;;47.05;;
21727;SDS011;11026;50.560;17.852;2024-02-14T07:33:10;71.00;;;45.15;;
21727;SDS011;11026;50.560;17.852;2024-02-14T07:35:38;74.07;;;46.40;;
21727;SDS011;11026;50.560;17.852;2024-02-14T07:38:05;72.38;;;46.30;;
21727;SDS011;11026;50.560;17.852;2024-02-14T07:40:32;68.30;;;43.70;;
21727;SDS011;11026;50.560;17.852;2024-02-14T07:45:32;66.95;;;44.47;;
21727;SDS011;11026;50.560;17.852;2024-02-14T07:48:02;64.53;;;41.70;;
21727;SDS011;11026;50.560;17.852;2024-02-14T07:50:32;63.47;;;41.58;;
21727;SDS011;11026;50.560;17.852;2024-02-14T07:53:01;58.65;;;38.78;;
21727;SDS011;11026;50.560;17.852;2024-02-14T07:55:29;61.10;;;39.72;;
21727;SDS011;11026;50.560;17.852;2024-02-14T07:57:57;65.10;;;39.30;;
21727;SDS011;11026;50.560;17.852;2024-02-14T08:00:26;61.17;;;38.65;;
21727;SDS011;11026;50.560;17.852;2024-02-14T08:02:53;52.92;;;34.90;;
21727;SDS011;11026;50.560;17.852;2024-02-14T08:05:20;55.50;;;37.05;;
21727;SDS011;11026;50.560;17.852;2024-02-14T08:07:48;54.80;;;35.60;;
21727;SDS011;11026;50.560;17.852;2024-02-14T08:10:16;58.00;;;36.08;;
21727;SDS011;11026;50.560;17.852;2024-02-14T08:12:43;50.90;;;35.00;;
21727;SDS011;11026;50.560;17.852;2024-02-14T08:15:10;51.10;;;34.45;;
21727;SDS011;11026;50.560;17.852;2024-02-14T08:17:37;53.22;;;34.05;;
21727;SDS011;11026;50.560;17.852;2024-02-14T08:22:38;51.33;;;33.87;;
21727;SDS011;11026;50.560;17.852;2024-02-14T08:25:06;45.47;;;32.35;;
21727;SDS011;11026;50.560;17.852;2024-02-14T08:27:33;46.90;;;31.08;;
21727;SDS011;11026;50.560;17.852;2024-02-14T08:30:01;47.50;;;31.98;;
21727;SDS011;11026;50.560;17.852;2024-02-14T08:32:28;54.75;;;32.05;;
21727;SDS011;11026;50.560;17.852;2024-02-14T08:34:55;48.70;;;31.80;;
21727;SDS011;11026;50.560;17.852;2024-02-14T08:37:22;45.20;;;31.02;;
21727;SDS011;11026;50.560;17.852;2024-02-14T08:39:51;49.40;;;31.15;;
21727;SDS011;11026;50.560;17.852;2024-02-14T08:42:18;47.53;;;30.88;;
21727;SDS011;11026;50.560;17.852;2024-02-14T08:44:45;44.63;;;30.42;;
21727;SDS011;11026;50.560;17.852;2024-02-14T08:47:13;48.22;;;30.65;;
21727;SDS011;11026;50.560;17.852;2024-02-14T08:49:40;40.95;;;27.95;;
21727;SDS011;11026;50.560;17.852;2024-02-14T08:52:10;42.50;;;26.58;;
21727;SDS011;11026;50.560;17.852;2024-02-14T08:54:39;34.80;;;24.42;;
21727;SDS011;11026;50.560;17.852;2024-02-14T08:57:08;36.75;;;24.25;;
21727;SDS011;11026;50.560;17.852;2024-02-14T08:59:35;36.47;;;22.85;;
21727;SDS011;11026;50.560;17.852;2024-02-14T09:02:02;33.17;;;23.30;;
21727;SDS011;11026;50.560;17.852;2024-02-14T09:09:36;30.65;;;21.73;;
21727;SDS011;11026;50.560;17.852;2024-02-14T09:12:05;35.95;;;20.95;;
21727;SDS011;11026;50.560;17.852;2024-02-14T09:14:32;28.48;;;19.80;;
21727;SDS011;11026;50.560;17.852;2024-02-14T09:17:00;30.58;;;18.92;;
21727;SDS011;11026;50.560;17.852;2024-02-14T09:19:28;27.63;;;18.70;;
21727;SDS011;11026;50.560;17.852;2024-02-14T09:21:57;28.67;;;17.55;;
21727;SDS011;11026;50.560;17.852;2024-02-14T09:24:24;22.17;;;16.52;;
21727;SDS011;11026;50.560;17.852;2024-02-14T09:26:52;27.60;;;17.95;;
21727;SDS011;11026;50.560;17.852;2024-02-14T09:29:21;24.17;;;17.23;;
21727;SDS011;11026;50.560;17.852;2024-02-14T09:31:50;23.75;;;16.17;;
21727;SDS011;11026;50.560;17.852;2024-02-14T09:34:18;28.42;;;15.00;;
21727;SDS011;11026;50.560;17.852;2024-02-14T09:36:50;21.40;;;15.02;;
21727;SDS011;11026;50.560;17.852;2024-02-14T09:39:19;23.15;;;15.35;;
21727;SDS011;11026;50.560;17.852;2024-02-14T09:41:48;19.90;;;13.57;;
21727;SDS011;11026;50.560;17.852;2024-02-14T09:44:22;20.25;;;14.57;;
21727;SDS011;11026;50.560;17.852;2024-02-14T09:46:50;20.88;;;14.07;;
21727;SDS011;11026;50.560;17.852;2024-02-14T09:49:17;20.67;;;14.40;;
21727;SDS011;11026;50.560;17.852;2024-02-14T09:51:46;25.20;;;14.57;;
21727;SDS011;11026;50.560;17.852;2024-02-14T09:54:16;21.58;;;14.02;;
21727;SDS011;11026;50.560;17.852;2024-02-14T09:56:50;22.88;;;14.70;;
21727;SDS011;11026;50.560;17.852;2024-02-14T09:59:24;21.73;;;13.93;;
21727;SDS011;11026;50.560;17.852;2024-02-14T10:01:51;24.17;;;14.82;;
21727;SDS011;11026;50.560;17.852;2024-02-14T10:04:23;24.25;;;13.70;;
21727;SDS011;11026;50.560;17.852;2024-02-14T10:09:23;24.63;;;14.85;;
21727;SDS011;11026;50.560;17.852;2024-02-14T10:11:53;21.65;;;14.32;;
21727;SDS011;11026;50.560;17.852;2024-02-14T10:14:22;20.17;;;14.10;;
21727;SDS011;11026;50.560;17.852;2024-02-14T10:16:50;20.98;;;13.73;;
21727;SDS011;11026;50.560;17.852;2024-02-14T10:19:17;19.90;;;12.82;;
21727;SDS011;11026;50.560;17.852;2024-02-14T10:21:58;19.70;;;13.57;;
21727;SDS011;11026;50.560;17.852;2024-02-14T10:24:26;22.20;;;13.52;;
21727;SDS011;11026;50.560;17.852;2024-02-14T10:26:54;22.08;;;14.73;;
21727;SDS011;11026;50.560;17.852;2024-02-14T10:29:25;23.33;;;14.05;;
21727;SDS011;11026;50.560;17.852;2024-02-14T10:31:52;19.95;;;12.95;;
21727;SDS011;11026;50.560;17.852;2024-02-14T10:34:24;19.35;;;12.52;;
21727;SDS011;11026;50.560;17.852;2024-02-14T10:36:56;20.97;;;12.73;;
21727;SDS011;11026;50.560;17.852;2024-02-14T10:39:27;19.27;;;12.70;;
21727;SDS011;11026;50.560;17.852;2024-02-14T10:41:58;14.82;;;11.10;;
21727;SDS011;11026;50.560;17.852;2024-02-14T10:44:26;18.05;;;11.73;;
21727;SDS011;11026;50.560;17.852;2024-02-14T10:46:54;16.15;;;10.70;;
21727;SDS011;11026;50.560;17.852;2024-02-14T10:49:23;15.85;;;10.05;;
21727;SDS011;11026;50.560;17.852;2024-02-14T10:51:56;14.48;;;10.52;;
21727;SDS011;11026;50.560;17.852;2024-02-14T10:54:27;14.25;;;9.48;;
21727;SDS011;11026;50.560;17.852;2024-02-14T10:56:55;14.82;;;9.38;;
21727;SDS011;11026;50.560;17.852;2024-02-14T10:59:25;15.55;;;10.00;;
21727;SDS011;11026;50.560;17.852;2024-02-14T11:01:55;17.05;;;9.75;;
21727;SDS011;11026;50.560;17.852;2024-02-14T11:04:27;11.77;;;7.80;;
21727;SDS011;11026;50.560;17.852;2024-02-14T11:09:33;14.32;;;9.10;;
21727;SDS011;11026;50.560;17.852;2024-02-14T11:12:08;11.68;;;8.20;;
21727;SDS011;11026;50.560;17.852;2024-02-14T11:14:37;10.88;;;7.18;;
21727;SDS011;11026;50.560;17.852;2024-02-14T11:17:12;8.88;;;6.72;;
21727;SDS011;11026;50.560;17.852;2024-02-14T11:22:18;10.40;;;6.85;;
21727;SDS011;11026;50.560;17.852;2024-02-14T11:24:46;9.30;;;6.60;;
21727;SDS011;11026;50.560;17.852;2024-02-14T11:27:14;11.18;;;7.13;;
21727;SDS011;11026;50.560;17.852;2024-02-14T11:30:00;10.10;;;7.35;;
21727;SDS011;11026;50.560;17.852;2024-02-14T11:32:29;10.73;;;6.22;;
21727;SDS011;11026;50.560;17.852;2024-02-14T11:34:57;10.27;;;5.90;;
21727;SDS011;11026;50.560;17.852;2024-02-14T11:37:29;6.15;;;4.20;;
21727;SDS011;11026;50.560;17.852;2024-02-14T11:39:58;6.13;;;4.05;;
21727;SDS011;11026;50.560;17.852;2024-02-14T11:42:26;6.95;;;4.88;;
21727;SDS011;11026;50.560;17.852;2024-02-14T11:44:54;5.03;;;3.97;;
21727;SDS011;11026;50.560;17.852;2024-02-14T11:47:24;5.30;;;3.75;;
21727;SDS011;11026;50.560;17.852;2024-02-14T11:49:52;5.22;;;3.58;;
21727;SDS011;11026;50.560;17.852;2024-02-14T11:52:19;6.28;;;3.70;;
21727;SDS011;11026;50.560;17.852;2024-02-14T11:54:46;4.97;;;3.22;;
21727;SDS011;11026;50.560;17.852;2024-02-14T12:02:20;5.97;;;3.25;;
21727;SDS011;11026;50.560;17.852;2024-02-14T12:04:49;4.63;;;2.95;;
21727;SDS011;11026;50.560;17.852;2024-02-14T12:07:20;6.03;;;3.00;;
21727;SDS011;11026;50.560;17.852;2024-02-14T12:12:22;6.13;;;4.10;;
21727;SDS011;11026;50.560;17.852;2024-02-14T12:14:52;5.80;;;3.25;;
21727;SDS011;11026;50.560;17.852;2024-02-14T12:19:47;6.03;;;3.22;;
21727;SDS011;11026;50.560;17.852;2024-02-14T12:22:21;5.78;;;3.03;;
21727;SDS011;11026;50.560;17.852;2024-02-14T12:24:48;5.53;;;2.90;;
21727;SDS011;11026;50.560;17.852;2024-02-14T12:27:19;3.97;;;2.90;;
21727;SDS011;11026;50.560;17.852;2024-02-14T12:29:47;3.95;;;2.72;;
21727;SDS011;11026;50.560;17.852;2024-02-14T12:32:16;8.40;;;3.13;;
21727;SDS011;11026;50.560;17.852;2024-02-14T12:34:44;5.93;;;3.60;;
21727;SDS011;11026;50.560;17.852;2024-02-14T12:37:11;5.57;;;3.67;;
21727;SDS011;11026;50.560;17.852;2024-02-14T12:39:39;5.93;;;3.53;;
21727;SDS011;11026;50.560;17.852;2024-02-14T12:42:07;7.68;;;3.72;;
21727;SDS011;11026;50.560;17.852;2024-02-14T12:44:35;7.10;;;3.85;;
21727;SDS011;11026;50.560;17.852;2024-02-14T12:47:04;7.25;;;4.00;;
21727;SDS011;11026;50.560;17.852;2024-02-14T12:52:02;9.88;;;5.63;;
21727;SDS011;11026;50.560;17.852;2024-02-14T12:54:32;7.28;;;5.40;;
21727;SDS011;11026;50.560;17.852;2024-02-14T12:56:59;6.57;;;4.93;;
21727;SDS011;11026;50.560;17.852;2024-02-14T12:59:26;7.40;;;4.68;;
21727;SDS011;11026;50.560;17.852;2024-02-14T13:01:55;8.23;;;4.55;;
21727;SDS011;11026;50.560;17.852;2024-02-14T13:04:22;8.73;;;5.07;;
21727;SDS011;11026;50.560;17.852;2024-02-14T13:06:49;7.15;;;4.60;;
21727;SDS011;11026;50.560;17.852;2024-02-14T13:09:17;9.55;;;5.60;;
21727;SDS011;11026;50.560;17.852;2024-02-14T13:11:44;6.75;;;5.03;;
21727;SDS011;11026;50.560;17.852;2024-02-14T13:14:12;7.65;;;5.22;;
21727;SDS011;11026;50.560;17.852;2024-02-14T13:16:39;11.50;;;5.15;;
21727;SDS011;11026;50.560;17.852;2024-02-14T13:19:07;8.25;;;4.82;;
21727;SDS011;11026;50.560;17.852;2024-02-14T13:21:37;7.00;;;4.53;;
21727;SDS011;11026;50.560;17.852;2024-02-14T13:24:05;5.53;;;4.22;;
21727;SDS011;11026;50.560;17.852;2024-02-14T13:26:32;7.90;;;4.88;;
21727;SDS011;11026;50.560;17.852;2024-02-14T13:29:01;9.35;;;4.88;;
21727;SDS011;11026;50.560;17.852;2024-02-14T13:31:28;8.55;;;4.55;;
21727;SDS011;11026;50.560;17.852;2024-02-14T13:33:56;7.60;;;4.70;;
21727;SDS011;11026;50.560;17.852;2024-02-14T13:36:23;11.10;;;4.53;;
21727;SDS011;11026;50.560;17.852;2024-02-14T13:38:51;7.05;;;3.92;;
21727;SDS011;11026;50.560;17.852;2024-02-14T13:41:19;6.88;;;3.97;;
21727;SDS011;11026;50.560;17.852;2024-02-14T13:43:47;11.05;;;4.32;;
21727;SDS011;11026;50.560;17.852;2024-02-14T13:46:14;8.73;;;3.97;;
21727;SDS011;11026;50.560;17.852;2024-02-14T13:48:43;6.43;;;4.00;;
21727;SDS011;11026;50.560;17.852;2024-02-14T13:51:11;6.95;;;3.45;;
21727;SDS011;11026;50.560;17.852;2024-02-14T13:53:38;5.90;;;3.63;;
21727;SDS011;11026;50.560;17.852;2024-02-14T13:56:06;10.65;;;3.63;;
21727;SDS011;11026;50.560;17.852;2024-02-14T13:58:34;6.43;;;3.45;;
21727;SDS011;11026;50.560;17.852;2024-02-14T14:03:33;6.00;;;3.38;;
21727;SDS011;11026;50.560;17.852;2024-02-14T14:06:03;9.52;;;3.20;;
21727;SDS011;11026;50.560;17.852;2024-02-14T14:08:35;4.90;;;3.00;;
21727;SDS011;11026;50.560;17.852;2024-02-14T14:11:03;10.27;;;5.13;;
21727;SDS011;11026;50.560;17.852;2024-02-14T14:13:31;8.98;;;4.80;;
21727;SDS011;11026;50.560;17.852;2024-02-14T14:16:01;9.10;;;4.80;;
21727;SDS011;11026;50.560;17.852;2024-02-14T14:18:29;9.18;;;4.68;;
21727;SDS011;11026;50.560;17.852;2024-02-14T14:20:56;6.22;;;4.20;;
21727;SDS011;11026;50.560;17.852;2024-02-14T14:23:24;9.35;;;4.57;;
21727;SDS011;11026;50.560;17.852;2024-02-14T14:25:52;8.70;;;4.65;;
21727;SDS011;11026;50.560;17.852;2024-02-14T14:28:19;8.80;;;4.63;;
21727;SDS011;11026;50.560;17.852;2024-02-14T14:33:20;8.10;;;5.40;;
21727;SDS011;11026;50.560;17.852;2024-02-14T14:35:48;9.25;;;5.85;;
21727;SDS011;11026;50.560;17.852;2024-02-14T14:38:23;6.72;;;4.35;;
21727;SDS011;11026;50.560;17.852;2024-02-14T14:40:55;10.18;;;5.20;;
21727;SDS011;11026;50.560;17.852;2024-02-14T14:43:22;9.25;;;5.20;;
21727;SDS011;11026;50.560;17.852;2024-02-14T14:45:50;8.73;;;4.55;;
21727;SDS011;11026;50.560;17.852;2024-02-14T14:48:20;9.05;;;5.10;;
21727;SDS011;11026;50.560;17.852;2024-02-14T14:50:49;7.97;;;4.53;;
21727;SDS011;11026;50.560;17.852;2024-02-14T14:53:19;9.77;;;4.80;;
21727;SDS011;11026;50.560;17.852;2024-02-14T14:55:50;13.70;;;6.35;;
21727;SDS011;11026;50.560;17.852;2024-02-14T14:58:23;10.32;;;5.85;;
21727;SDS011;11026;50.560;17.852;2024-02-14T15:00:56;10.48;;;6.15;;
21727;SDS011;11026;50.560;17.852;2024-02-14T15:03:25;10.98;;;5.40;;
21727;SDS011;11026;50.560;17.852;2024-02-14T15:05:53;9.57;;;4.72;;
21727;SDS011;11026;50.560;17.852;2024-02-14T15:08:21;11.15;;;5.40;;
21727;SDS011;11026;50.560;17.852;2024-02-14T15:10:53;8.60;;;5.00;;
21727;SDS011;11026;50.560;17.852;2024-02-14T15:13:22;9.55;;;4.90;;
21727;SDS011;11026;50.560;17.852;2024-02-14T15:15:52;11.57;;;5.28;;
21727;SDS011;11026;50.560;17.852;2024-02-14T15:18:19;12.10;;;5.72;;
21727;SDS011;11026;50.560;17.852;2024-02-14T15:20:47;10.68;;;5.80;;
21727;SDS011;11026;50.560;17.852;2024-02-14T15:23:14;15.13;;;6.13;;
21727;SDS011;11026;50.560;17.852;2024-02-14T15:25:41;18.73;;;6.97;;